METAR AND TAF INFORMATION
METAR FOR LXGB
ADDS - METARS form results

(0904 UTC 28 October 2021)
Data provider http://aviationweather.gov/metar/data/
 
METAR text: LXGB 280850Z 06011KT 9999 FEW015 SCT024 20/16 Q1018 BECMG FEW016 SCT040 RMK WHT BECMG BLU
Conditions at: LXGB (GIBRALTAR (CIV/M, GI) observed 0850 UTC 28 October 2021
Temperature: 20.0°C (68°F)
Dewpoint: 16.0°C (61°F) [RH = 78%]
Pressure (altimeter): 30.06 inches Hg (1018.0 mb)
Winds: from the ENE (60 degrees) at 13 MPH (11 knots; 5.7 m/s)
Visibility: 6 or more miles (10+ km)
Ceiling: at least 12,000 feet AGL
Clouds: few clouds at 1500 feet AGL
scattered clouds at 2400 feet AGL
Weather: no significant weather observed at this time

METAR text: LXGB 280820Z 07014KT 9999 FEW015 SCT025 20/16 Q1018 TEMPO SCT023
Conditions at: LXGB (GIBRALTAR (CIV/M, GI) observed 0820 UTC 28 October 2021
Temperature: 20.0°C (68°F)
Dewpoint: 16.0°C (61°F) [RH = 78%]
Pressure (altimeter): 30.06 inches Hg (1018.0 mb)
Winds: from the ENE (70 degrees) at 16 MPH (14 knots; 7.2 m/s)
Visibility: 6 or more miles (10+ km)
Ceiling: at least 12,000 feet AGL
Clouds: few clouds at 1500 feet AGL
scattered clouds at 2500 feet AGL
Weather: no significant weather observed at this time

Forecast for: LXGB (GIBRALTAR (CIV/M, GI)
Text: TAF LXGB 280744Z 2809/2818 08012KT 9999 FEW016 SCT022
Forecast period: 0900 to 1100 UTC 28 October 2021
Forecast type: FROM: standard forecast or significant change
Winds: from the E (80 degrees) at 14 MPH (12 knots; 6.2 m/s)
Visibility: 6 or more miles (10+ km)
Ceiling: at least 12,000 feet AGL
Clouds: few clouds at 1600 feet AGL
scattered clouds at 2200 feet AGL
Weather: no significant weather forecast for this period
Text: TEMPO 2809/2811 SCT030
Forecast period: 0900 to 1100 UTC 28 October 2021
Forecast type: TEMPORARY: The following changes expected for less than half the time period
Visibility: missing
Ceiling: at least 12,000 feet AGL
Clouds: scattered clouds at 3000 feet AGL
Weather: no significant weather forecast for this period
Text: BECMG 2811/2813 FEW016
Forecast period: 1100 to 1800 UTC 28 October 2021
Forecast type: BECOMING: Conditions expected to become as follows by 1300 UTC 28 October 2021
Winds: from the E (80 degrees) at 14 MPH (12 knots; 6.2 m/s)
Visibility: 6 or more miles (10+ km)
Ceiling: at least 12,000 feet AGL
Clouds: few clouds at 1600 feet AGL
Weather: no significant weather forecast for this period

 AIRPORT MAP

 RUNWAY INFORMATION
Runway 09 Runway length 6000 ft Runway width 150 ft
Runway elevation 10 ft Runway displaced threshold 302 ft Runway heading 88
Runway 27 Runway length 6000 ft Runway width 150 ft
Runway elevation 11 ft Runway displaced threshold 368 ft Runway heading 268

 AIRPORT FREQUENCIES
Type A/D Name APP Frequency 122.8 MHZ
Type OPS Name GIB TALKDO Frequency 130.4 MHZ
Type TWR Name TWR Frequency 131.2 MHZ

 AIRPORT NEAR NAVIGATION AIDS
Type TACAN Name Gibraltar Frequency 113600 KHZ

-